Time;durP1;ratioP1;P1;durP2;ratioP2;P2;SDS_P1;SDS_P2;PMS_P1;PMS_P2;Temp;Humidity;BMP_temperature;BMP_pressure;BME280_temperature;BME280_humidity;BME280_pressure;Samples;Min_cycle;Max_cycle;Signal;HPM_P1;HPM_P2
2023/08/27 00:00:30;;;;;;;21.27;13.50;;;17.00;99.90;;;;;;5071392;28;20785;-78
2023/08/27 00:05:53;;;;;;;14.27;13.17;;;17.00;99.90;;;;;;5068987;28;20462;-78
2023/08/27 00:08:40;;;;;;;13.80;12.67;;;17.00;99.90;;;;;;5070139;28;20453;-79
2023/08/27 00:11:17;;;;;;;14.83;13.73;;;17.10;99.90;;;;;;5069919;28;20461;-79
2023/08/27 00:13:52;;;;;;;13.87;12.67;;;17.10;99.90;;;;;;5069520;28;20434;-79
2023/08/27 00:16:30;;;;;;;12.50;11.17;;;17.10;99.90;;;;;;5069627;28;20484;-79
2023/08/27 00:19:08;;;;;;;14.20;12.90;;;17.10;99.90;;;;;;5068971;28;20442;-79
2023/08/27 00:21:39;;;;;;;14.33;13.17;;;17.10;99.90;;;;;;5067809;28;20969;-77
2023/08/27 00:24:13;;;;;;;14.07;12.90;;;17.00;99.90;;;;;;5065823;28;20465;-80
2023/08/27 00:26:48;;;;;;;14.20;12.90;;;17.00;99.90;;;;;;5062949;28;20560;-82
2023/08/27 00:29:23;;;;;;;12.90;11.70;;;17.00;99.90;;;;;;5062976;28;20823;-80
2023/08/27 00:31:55;;;;;;;12.50;11.33;;;16.90;99.90;;;;;;5061746;28;20468;-78
2023/08/27 00:34:36;;;;;;;12.63;11.00;;;16.90;99.90;;;;;;5060940;28;20488;-78
2023/08/27 00:37:06;;;;;;;10.47;9.60;;;16.90;99.90;;;;;;5059630;28;20477;-78
2023/08/27 00:39:38;;;;;;;10.33;9.30;;;16.90;99.90;;;;;;5061136;28;20975;-78
2023/08/27 00:42:09;;;;;;;11.57;10.30;;;16.90;99.90;;;;;;5061048;28;20457;-79
2023/08/27 00:44:49;;;;;;;9.80;9.00;;;17.00;99.90;;;;;;5060997;28;20462;-80
2023/08/27 00:47:22;;;;;;;10.07;9.17;;;17.00;99.90;;;;;;5063619;28;20453;-79
2023/08/27 00:49:58;;;;;;;10.63;9.53;;;17.00;99.90;;;;;;5063355;28;20430;-79
2023/08/27 00:52:31;;;;;;;10.93;9.17;;;17.10;99.90;;;;;;5062121;28;20513;-80
2023/08/27 00:55:03;;;;;;;9.90;9.03;;;17.10;99.90;;;;;;5062619;28;20445;-79
2023/08/27 00:57:32;;;;;;;11.07;10.10;;;17.10;99.90;;;;;;5061193;28;20543;-80
2023/08/27 01:00:01;;;;;;;11.33;10.40;;;17.10;99.90;;;;;;5060903;28;20884;-79
2023/08/27 01:02:42;;;;;;;11.50;10.50;;;17.10;99.90;;;;;;5060586;28;20740;-78
2023/08/27 01:05:16;;;;;;;11.53;10.30;;;17.10;99.90;;;;;;5060841;28;20460;-80
2023/08/27 01:07:52;;;;;;;11.00;10.03;;;17.10;99.90;;;;;;5061012;28;20468;-79
2023/08/27 01:10:41;;;;;;;10.73;9.73;;;17.10;99.90;;;;;;5060748;28;20663;-80
2023/08/27 01:13:16;;;;;;;12.10;11.00;;;17.10;99.90;;;;;;5065124;28;20454;-78
2023/08/27 01:18:51;;;;;;;14.07;12.77;;;17.20;99.90;;;;;;5068113;28;20446;-81
2023/08/27 01:24:29;;;;;;;14.93;13.50;;;17.20;99.90;;;;;;5064714;28;20437;-78
2023/08/27 01:27:26;;;;;;;15.43;13.80;;;17.20;99.90;;;;;;5071240;28;20477;-79
2023/08/27 01:30:07;;;;;;;14.80;11.07;;;17.20;99.90;;;;;;5071536;28;20450;-78
2023/08/27 01:32:49;;;;;;;13.27;11.93;;;16.90;99.90;;;;;;5073027;28;20480;-79
2023/08/27 01:35:23;;;;;;;12.97;11.70;;;17.20;99.90;;;;;;5073209;28;20456;-81
2023/08/27 01:37:57;;;;;;;12.33;10.47;;;17.20;99.90;;;;;;5073627;28;20460;-79
2023/08/27 01:40:38;;;;;;;12.43;10.97;;;17.20;99.90;;;;;;5074548;28;20449;-79
2023/08/27 01:43:23;;;;;;;12.73;11.60;;;17.20;99.90;;;;;;5074395;28;20445;-78
2023/08/27 01:49:24;;;;;;;11.53;10.37;;;17.20;99.90;;;;;;5069400;28;20438;-76
2023/08/27 01:52:26;;;;;;;11.10;10.10;;;17.20;99.90;;;;;;5037712;28;20442;-78
2023/08/27 02:03:38;;;;;;;14.53;13.13;;;17.20;99.90;;;;;;5025156;28;20440;-81
2023/08/27 02:06:29;;;;;;;14.00;12.80;;;17.20;99.90;;;;;;5032722;28;20515;-80
2023/08/27 02:09:06;;;;;;;13.43;12.13;;;17.10;99.90;;;;;;5030589;28;20443;-82
2023/08/27 02:11:36;;;;;;;14.77;13.37;;;17.10;99.90;;;;;;5032245;28;20527;-81
2023/08/27 02:14:05;;;;;;;16.33;14.80;;;17.10;99.90;;;;;;5031779;28;20443;-80
2023/08/27 02:16:37;;;;;;;14.33;13.13;;;17.10;99.90;;;;;;5029701;28;20554;-78
2023/08/27 02:19:05;;;;;;;15.50;14.00;;;17.20;99.90;;;;;;5029579;28;20459;-79
2023/08/27 02:21:36;;;;;;;14.27;12.90;;;17.20;99.90;;;;;;5029547;28;20490;-77
2023/08/27 02:24:08;;;;;;;16.27;13.70;;;17.20;99.90;;;;;;5030810;28;20435;-79
2023/08/27 02:26:36;;;;;;;15.20;13.73;;;17.20;99.90;;;;;;5033487;28;20483;-79
2023/08/27 02:29:05;;;;;;;13.93;12.53;;;17.20;99.90;;;;;;5028477;28;20464;-80
2023/08/27 02:31:38;;;;;;;13.40;12.00;;;17.20;99.90;;;;;;5017591;28;20451;-80
2023/08/27 02:34:18;;;;;;;14.63;13.23;;;17.20;99.90;;;;;;5016980;28;20451;-81
2023/08/27 02:36:53;;;;;;;12.33;11.23;;;17.40;99.90;;;;;;5016922;28;20511;-81
2023/08/27 02:39:27;;;;;;;13.47;12.37;;;17.20;99.90;;;;;;5015821;28;20459;-79
2023/08/27 02:41:56;;;;;;;15.00;13.70;;;17.10;99.90;;;;;;5017490;28;20541;-80
2023/08/27 02:44:28;;;;;;;13.73;12.40;;;17.10;99.90;;;;;;5016713;28;20451;-78
2023/08/27 02:47:04;;;;;;;13.10;12.03;;;17.20;99.90;;;;;;5018953;28;20583;-79
2023/08/27 02:49:33;;;;;;;13.33;11.93;;;17.20;99.90;;;;;;5018213;28;20538;-81
2023/08/27 02:52:07;;;;;;;12.60;11.00;;;17.20;99.90;;;;;;5014957;28;20455;-80
2023/08/27 02:54:43;;;;;;;11.90;10.80;;;17.20;99.90;;;;;;5015058;28;20482;-79
2023/08/27 02:57:15;;;;;;;11.90;10.80;;;17.30;99.90;;;;;;5016570;28;20479;-78
2023/08/27 02:59:51;;;;;;;11.87;10.70;;;17.30;99.90;;;;;;5015487;28;20487;-81
2023/08/27 03:02:27;;;;;;;11.43;10.33;;;17.30;99.90;;;;;;5019279;28;20503;-79
2023/08/27 03:04:58;;;;;;;13.70;11.27;;;17.20;99.90;;;;;;5017013;28;20546;-79
2023/08/27 03:07:32;;;;;;;10.63;9.63;;;17.20;99.90;;;;;;5022304;28;20474;-81
2023/08/27 03:10:02;;;;;;;12.87;11.67;;;17.30;99.90;;;;;;5019948;28;20569;-80
2023/08/27 03:12:32;;;;;;;11.70;10.80;;;17.30;99.90;;;;;;5019079;28;20469;-78
2023/08/27 03:15:00;;;;;;;11.70;10.57;;;17.30;99.90;;;;;;5017714;28;20451;-80
2023/08/27 03:17:39;;;;;;;15.83;12.73;;;17.30;99.90;;;;;;5017254;28;20511;-79
2023/08/27 03:20:07;;;;;;;13.70;12.27;;;17.30;99.90;;;;;;5013570;28;20467;-80
2023/08/27 03:22:36;;;;;;;12.80;11.70;;;17.30;99.90;;;;;;5012841;28;20502;-79
2023/08/27 03:25:09;;;;;;;13.73;12.43;;;17.00;99.90;;;;;;5015022;28;20447;-80
2023/08/27 03:27:47;;;;;;;14.00;12.60;;;17.30;99.90;;;;;;5015980;28;20473;-80
2023/08/27 03:30:21;;;;;;;13.97;12.70;;;17.30;99.90;;;;;;5018154;28;20815;-83
2023/08/27 03:32:54;;;;;;;14.57;13.30;;;17.30;99.90;;;;;;5017641;28;20461;-79
2023/08/27 03:35:34;;;;;;;15.10;13.40;;;17.30;99.90;;;;;;5016406;28;20458;-80
2023/08/27 03:38:04;;;;;;;17.03;15.43;;;17.30;99.90;;;;;;5016144;28;20571;-81
2023/08/27 03:40:33;;;;;;;14.93;13.57;;;17.30;99.90;;;;;;5015847;28;20458;-79
2023/08/27 03:43:01;;;;;;;15.37;14.07;;;17.30;99.90;;;;;;5018847;28;20431;-79
2023/08/27 03:48:34;;;;;;;15.53;13.60;;;17.30;99.90;;;;;;5007872;28;20452;-79
2023/08/27 03:51:03;;;;;;;16.83;15.03;;;17.20;99.90;;;;;;5019753;28;20825;-82
2023/08/27 03:53:37;;;;;;;14.20;12.80;;;17.30;99.90;;;;;;5018918;28;20436;-79
2023/08/27 03:56:06;;;;;;;13.17;11.97;;;17.20;99.90;;;;;;5017314;28;20533;-80
2023/08/27 03:58:43;;;;;;;15.53;14.20;;;17.30;99.90;;;;;;5017080;28;21100;-83
2023/08/27 04:01:11;;;;;;;17.47;15.77;;;17.30;99.90;;;;;;5015613;28;20523;-79
2023/08/27 04:03:42;;;;;;;16.20;14.67;;;17.30;99.90;;;;;;5015172;28;20534;-80
2023/08/27 04:06:13;;;;;;;15.53;13.97;;;17.30;99.90;;;;;;5014452;28;20471;-80
2023/08/27 04:08:57;;;;;;;13.83;12.73;;;17.30;99.90;;;;;;5015917;28;20459;-83
2023/08/27 04:11:37;;;;;;;15.90;14.40;;;17.20;99.90;;;;;;5017677;28;20907;-82
2023/08/27 04:14:19;;;;;;;15.83;14.37;;;17.20;99.90;;;;;;5020624;28;20456;-83
2023/08/27 04:16:58;;;;;;;17.50;15.20;;;17.20;99.90;;;;;;5020308;28;20486;-81
2023/08/27 04:19:35;;;;;;;16.93;15.33;;;17.20;99.90;;;;;;5020631;28;20534;-80
2023/08/27 04:22:14;;;;;;;16.90;14.97;;;17.20;99.90;;;;;;5024816;28;20556;-80
2023/08/27 04:24:52;;;;;;;16.50;15.00;;;17.10;99.90;;;;;;5025219;28;20447;-80
2023/08/27 04:27:33;;;;;;;16.27;14.53;;;17.20;99.90;;;;;;5025353;28;20491;-80
2023/08/27 04:30:13;;;;;;;16.07;14.47;;;17.20;99.90;;;;;;5026731;28;20454;-79
2023/08/27 04:32:47;;;;;;;16.40;14.80;;;17.20;99.90;;;;;;5024833;28;20447;-78
2023/08/27 04:35:20;;;;;;;15.80;14.40;;;17.30;99.90;;;;;;5025198;28;20568;-81
2023/08/27 04:37:51;;;;;;;15.90;14.40;;;17.30;99.90;;;;;;5024437;28;20541;-79
2023/08/27 04:40:30;;;;;;;17.73;15.50;;;17.20;99.90;;;;;;5024361;28;20455;-81
2023/08/27 04:43:03;;;;;;;17.27;15.60;;;17.20;99.90;;;;;;5024393;28;20446;-80
2023/08/27 04:45:36;;;;;;;15.43;14.07;;;17.20;99.90;;;;;;5022840;28;20546;-83
2023/08/27 04:48:08;;;;;;;14.20;12.80;;;17.20;99.90;;;;;;5022841;28;20491;-80
2023/08/27 04:50:45;;;;;;;15.70;14.40;;;17.40;99.90;;;;;;5021828;28;20448;-79
2023/08/27 04:53:26;;;;;;;17.30;15.60;;;17.20;99.90;;;;;;5021963;28;20453;-82
2023/08/27 04:55:57;;;;;;;18.33;16.63;;;17.20;99.90;;;;;;5021342;28;20521;-80
2023/08/27 04:58:26;;;;;;;16.47;15.07;;;17.10;99.90;;;;;;5022462;28;20534;-79
2023/08/27 05:00:53;;;;;;;17.50;15.87;;;17.10;99.90;;;;;;5023074;28;20517;-79
2023/08/27 05:03:22;;;;;;;17.10;15.70;;;17.50;99.90;;;;;;5022776;28;20458;-80
2023/08/27 05:05:56;;;;;;;16.03;14.50;;;17.10;99.90;;;;;;5023395;28;20501;-79
2023/08/27 05:08:26;;;;;;;11.83;10.93;;;17.10;99.90;;;;;;5023957;28;20432;-80
2023/08/27 05:10:55;;;;;;;9.33;8.53;;;17.10;99.90;;;;;;5022569;28;20535;-80
2023/08/27 05:13:27;;;;;;;9.17;8.43;;;17.10;99.90;;;;;;5022964;28;20435;-81
2023/08/27 05:15:55;;;;;;;6.70;6.20;;;17.10;99.90;;;;;;5023873;28;20440;-78
2023/08/27 05:18:24;;;;;;;7.40;6.77;;;17.00;99.90;;;;;;5022638;28;20478;-78
2023/08/27 05:20:54;;;;;;;7.60;7.00;;;17.00;99.90;;;;;;5023149;28;20486;-80
2023/08/27 05:23:26;;;;;;;5.90;5.40;;;17.00;99.90;;;;;;5023113;28;20455;-81
2023/08/27 05:25:55;;;;;;;6.80;6.30;;;17.00;99.90;;;;;;5022990;28;20463;-80
2023/08/27 05:28:28;;;;;;;6.37;5.80;;;17.00;99.90;;;;;;5021977;28;20478;-79
2023/08/27 05:31:03;;;;;;;7.87;6.63;;;17.10;99.90;;;;;;5021679;28;20447;-80
2023/08/27 05:33:31;;;;;;;6.23;5.83;;;17.10;99.90;;;;;;5022531;28;20509;-79
2023/08/27 05:36:04;;;;;;;6.20;5.80;;;17.10;99.90;;;;;;5022098;28;20436;-79
2023/08/27 05:38:40;;;;;;;5.87;5.37;;;17.30;99.90;;;;;;5022618;28;20661;-79
2023/08/27 05:41:09;;;;;;;6.97;6.03;;;17.10;99.90;;;;;;5021144;28;20466;-80
2023/08/27 05:43:40;;;;;;;6.70;6.10;;;17.10;99.90;;;;;;5021784;28;21105;-80
2023/08/27 05:46:07;;;;;;;6.73;6.23;;;17.10;99.90;;;;;;5020344;28;20464;-81
2023/08/27 05:48:43;;;;;;;6.53;5.93;;;17.10;99.90;;;;;;5021170;28;20494;-79
2023/08/27 05:51:18;;;;;;;6.00;5.40;;;17.10;99.90;;;;;;5021032;28;20595;-81
2023/08/27 05:53:51;;;;;;;5.80;5.40;;;17.10;99.90;;;;;;5020180;28;20838;-82
2023/08/27 05:56:22;;;;;;;6.33;5.83;;;17.20;99.90;;;;;;5021417;28;21079;-81
2023/08/27 05:58:51;;;;;;;6.30;5.80;;;17.20;99.90;;;;;;5019866;28;20874;-79
2023/08/27 06:01:23;;;;;;;5.70;5.13;;;17.30;99.90;;;;;;5017300;28;20958;-79
2023/08/27 06:03:52;;;;;;;5.17;4.77;;;17.30;99.90;;;;;;5014889;28;20472;-79
2023/08/27 06:06:23;;;;;;;5.83;5.43;;;17.30;99.90;;;;;;5014188;28;20543;-79
2023/08/27 06:08:57;;;;;;;5.83;5.40;;;17.40;99.90;;;;;;5016578;28;20455;-81
2023/08/27 06:11:28;;;;;;;6.30;5.80;;;17.30;99.90;;;;;;5014654;28;21016;-79
2023/08/27 06:14:02;;;;;;;7.63;5.80;;;17.30;99.90;;;;;;5014139;28;20455;-79
2023/08/27 06:16:35;;;;;;;6.17;5.77;;;17.30;99.90;;;;;;5014329;28;20934;-79
2023/08/27 06:19:04;;;;;;;5.90;5.50;;;17.30;99.90;;;;;;5015379;28;21084;-80
2023/08/27 06:21:34;;;;;;;6.67;6.07;;;17.30;99.90;;;;;;5018820;28;20451;-79
2023/08/27 06:24:05;;;;;;;7.17;5.63;;;17.40;99.90;;;;;;5017387;28;20527;-78
2023/08/27 06:26:35;;;;;;;7.57;5.93;;;17.40;99.90;;;;;;5018607;28;20563;-78
2023/08/27 06:29:05;;;;;;;6.33;5.83;;;17.40;99.90;;;;;;5020174;28;20482;-80
2023/08/27 06:31:53;;;;;;;6.23;5.83;;;17.40;99.90;;;;;;5023879;28;20460;-81
2023/08/27 06:34:25;;;;;;;7.07;6.57;;;17.40;99.90;;;;;;5022654;28;20462;-80
2023/08/27 06:36:55;;;;;;;6.93;6.43;;;17.50;99.90;;;;;;5020119;28;20475;-80
2023/08/27 06:39:25;;;;;;;6.00;5.60;;;17.50;99.90;;;;;;5015305;28;20506;-81
2023/08/27 06:41:54;;;;;;;6.43;5.93;;;17.50;99.90;;;;;;5014969;28;20796;-80
2023/08/27 06:44:22;;;;;;;6.27;5.83;;;17.50;99.90;;;;;;5013495;28;20955;-80
2023/08/27 06:46:55;;;;;;;6.70;6.03;;;17.60;99.90;;;;;;5016474;28;20486;-81
2023/08/27 06:49:23;;;;;;;6.57;6.07;;;17.50;99.90;;;;;;5016573;28;20424;-80
2023/08/27 06:51:54;;;;;;;6.17;5.70;;;17.60;99.90;;;;;;5015188;28;20479;-79
2023/08/27 06:54:28;;;;;;;4.27;3.97;;;17.60;99.90;;;;;;5013893;28;20443;-78
2023/08/27 06:56:57;;;;;;;4.50;4.10;;;17.50;99.90;;;;;;5013494;28;20506;-78
2023/08/27 06:59:28;;;;;;;4.63;4.13;;;17.60;99.90;;;;;;5017447;28;20475;-79
2023/08/27 07:02:19;;;;;;;3.40;3.13;;;17.70;99.90;;;;;;5020874;28;20469;-81
2023/08/27 07:05:08;;;;;;;2.60;2.50;;;17.70;99.90;;;;;;5025929;28;20451;-80
2023/08/27 07:07:42;;;;;;;3.13;2.93;;;17.90;99.90;;;;;;5021696;28;20467;-79
2023/08/27 07:10:20;;;;;;;2.57;2.47;;;17.70;99.90;;;;;;5022885;28;20451;-82
2023/08/27 07:12:54;;;;;;;3.37;3.07;;;17.70;99.90;;;;;;5026159;28;20451;-79
2023/08/27 07:15:31;;;;;;;3.27;2.70;;;17.80;99.90;;;;;;5025090;28;20466;-79
2023/08/27 07:21:21;;;;;;;5.53;4.87;;;17.90;99.90;;;;;;5026400;28;20513;-79
2023/08/27 07:23:59;;;;;;;3.57;3.27;;;18.00;99.90;;;;;;5019305;28;20497;-80
2023/08/27 07:26:43;;;;;;;3.07;2.80;;;18.00;99.90;;;;;;5023268;28;20486;-81
2023/08/27 07:29:19;;;;;;;2.97;2.77;;;18.00;99.90;;;;;;5022939;28;20462;-80
2023/08/27 07:31:47;;;;;;;2.93;2.73;;;18.00;99.90;;;;;;5024242;28;20451;-80
2023/08/27 07:34:16;;;;;;;3.43;3.23;;;18.10;99.90;;;;;;5026534;28;20455;-79
2023/08/27 07:36:51;;;;;;;3.20;3.00;;;18.20;99.90;;;;;;5027086;28;20513;-80
2023/08/27 07:39:25;;;;;;;2.80;2.70;;;18.30;99.90;;;;;;5027918;28;20474;-79
2023/08/27 07:42:09;;;;;;;2.93;2.73;;;18.30;99.90;;;;;;5030262;28;20487;-77
2023/08/27 07:44:41;;;;;;;5.90;3.00;;;18.20;99.90;;;;;;5029848;28;20461;-78
2023/08/27 07:47:12;;;;;;;3.70;2.73;;;18.20;99.90;;;;;;5029570;28;20464;-80
2023/08/27 07:50:31;;;;;;;2.73;2.53;;;18.30;99.90;;;;;;5022360;28;20443;-81
2023/08/27 07:53:03;;;;;;;2.80;2.60;;;18.30;99.90;;;;;;5024565;28;20451;-79
2023/08/27 07:55:34;;;;;;;3.00;2.70;;;18.20;99.90;;;;;;5024285;28;20522;-81
2023/08/27 07:58:04;;;;;;;3.40;2.80;;;18.30;99.90;;;;;;5020939;28;20510;-79
2023/08/27 08:00:36;;;;;;;2.63;2.53;;;18.40;99.90;;;;;;5023277;28;20515;-79
2023/08/27 08:03:08;;;;;;;2.73;2.53;;;18.30;99.90;;;;;;5023005;28;20545;-77
2023/08/27 08:05:40;;;;;;;2.63;2.43;;;18.30;99.90;;;;;;5020824;28;20513;-80
2023/08/27 08:08:09;;;;;;;3.17;2.87;;;18.30;99.90;;;;;;5020862;28;20884;-79
2023/08/27 08:10:38;;;;;;;3.10;2.80;;;18.20;99.90;;;;;;5024184;28;20542;-80
2023/08/27 08:13:25;;;;;;;2.80;2.60;;;18.20;99.90;;;;;;5030937;28;20916;-78
2023/08/27 08:15:53;;;;;;;3.17;2.97;;;18.30;99.90;;;;;;5025205;28;20519;-79
2023/08/27 08:18:49;;;;;;;3.13;2.93;;;18.30;99.90;;;;;;5025562;28;20479;-81
2023/08/27 08:21:30;;;;;;;3.10;2.80;;;18.30;99.90;;;;;;5021404;28;20463;-78
2023/08/27 08:23:59;;;;;;;3.43;3.13;;;18.40;99.90;;;;;;5018688;28;20439;-79
2023/08/27 08:29:35;;;;;;;2.90;2.70;;;18.50;99.90;;;;;;5019373;28;20450;-80
2023/08/27 08:32:08;;;;;;;3.00;2.70;;;18.70;99.90;;;;;;5020319;28;20474;-79
2023/08/27 08:34:44;;;;;;;2.90;2.70;;;18.80;99.90;;;;;;5018479;28;20435;-78
2023/08/27 08:37:15;;;;;;;2.50;2.30;;;18.70;99.90;;;;;;5026509;28;20489;-80
2023/08/27 08:39:46;;;;;;;3.00;2.40;;;18.70;99.90;;;;;;5020390;28;20566;-79
2023/08/27 08:42:25;;;;;;;2.53;2.33;;;18.70;99.90;;;;;;5021991;28;20466;-81
2023/08/27 08:45:18;;;;;;;3.10;2.90;;;18.70;99.90;;;;;;5025217;28;21015;-80
2023/08/27 08:48:03;;;;;;;2.50;2.40;;;18.70;99.90;;;;;;5029172;28;20494;-80
2023/08/27 08:50:47;;;;;;;2.53;2.33;;;18.80;99.90;;;;;;5031225;28;20424;-79
2023/08/27 08:56:21;;;;;;;3.03;2.63;;;18.90;99.90;;;;;;5010701;28;20535;-79
2023/08/27 08:58:57;;;;;;;2.13;2.03;;;19.00;99.90;;;;;;5031329;28;20528;-80
2023/08/27 09:01:33;;;;;;;3.53;2.13;;;19.00;99.90;;;;;;5031389;28;20443;-79
2023/08/27 09:04:12;;;;;;;2.10;1.90;;;18.90;99.90;;;;;;5029563;28;20477;-78
2023/08/27 09:06:45;;;;;;;1.90;1.80;;;18.90;99.90;;;;;;5030463;28;20456;-77
2023/08/27 09:09:14;;;;;;;2.47;1.90;;;19.00;99.90;;;;;;5033738;28;20426;-78
2023/08/27 09:11:49;;;;;;;2.83;2.47;;;19.10;99.90;;;;;;5033742;28;20455;-80
2023/08/27 09:14:23;;;;;;;2.00;1.87;;;19.10;99.90;;;;;;5027169;28;20447;-81
2023/08/27 09:17:05;;;;;;;2.47;2.33;;;19.10;99.90;;;;;;5026894;28;20467;-78
2023/08/27 09:19:39;;;;;;;2.27;2.17;;;19.10;99.90;;;;;;5027311;28;20546;-79
2023/08/27 09:25:23;;;;;;;3.27;2.97;;;19.00;99.90;;;;;;5032688;28;20455;-81
2023/08/27 09:27:59;;;;;;;9.90;2.23;;;19.00;99.90;;;;;;5031281;28;20475;-79
2023/08/27 09:30:29;;;;;;;4.03;2.10;;;19.10;99.90;;;;;;5024343;28;20451;-80
2023/08/27 09:33:19;;;;;;;2.50;2.00;;;19.20;99.90;;;;;;5023131;28;20451;-81
2023/08/27 09:35:58;;;;;;;2.87;2.67;;;19.40;99.90;;;;;;5022361;28;20451;-81
2023/08/27 09:42:11;;;;;;;2.10;1.93;;;19.90;99.90;;;;;;4960696;28;20942;-81
2023/08/27 09:44:55;;;;;;;2.30;2.10;;;19.90;99.90;;;;;;5014352;28;20447;-80
2023/08/27 09:47:39;;;;;;;2.13;1.83;;;20.10;99.90;;;;;;5019811;28;20471;-82
2023/08/27 09:50:16;;;;;;;2.97;2.37;;;20.30;99.90;;;;;;5018409;28;20447;-79
2023/08/27 09:52:50;;;;;;;2.50;2.30;;;20.40;99.90;;;;;;5019154;28;20448;-83
2023/08/27 09:58:09;;;;;;;2.73;2.50;;;20.40;99.90;;;;;;5008116;28;20483;-81
2023/08/27 10:00:44;;;;;;;2.90;2.70;;;20.50;99.90;;;;;;5022519;28;20459;-81
2023/08/27 10:03:31;;;;;;;2.43;2.20;;;20.60;99.90;;;;;;5023852;28;20563;-83
2023/08/27 10:06:05;;;;;;;2.70;2.43;;;20.40;99.90;;;;;;5024334;28;20932;-80
2023/08/27 10:08:38;;;;;;;2.40;2.20;;;20.30;99.90;;;;;;5012765;28;20449;-79
2023/08/27 10:11:18;;;;;;;1.90;1.80;;;20.40;99.90;;;;;;5023387;28;20497;-82
2023/08/27 10:13:57;;;;;;;3.57;2.23;;;20.30;99.90;;;;;;5021508;28;20447;-79
2023/08/27 10:16:27;;;;;;;2.93;2.07;;;20.50;99.90;;;;;;5022302;28;20461;-81
2023/08/27 10:19:03;;;;;;;3.37;2.07;;;20.60;99.90;;;;;;5023487;28;20559;-80
2023/08/27 10:21:50;;;;;;;2.80;2.10;;;20.60;99.90;;;;;;5023279;28;20471;-79
2023/08/27 10:27:51;;;;;;;;;;;;;;;;;;;;;
2023/08/27 10:36:50;;;;;;;9.10;3.00;;;21.70;99.90;;;;;;4999708;28;20492;-82
2023/08/27 10:39:20;;;;;;;3.10;2.53;;;21.90;99.90;;;;;;5000972;28;20908;-77
2023/08/27 10:41:49;;;;;;;2.17;2.00;;;22.10;99.90;;;;;;4999413;28;20459;-79
2023/08/27 10:44:21;;;;;;;2.47;2.27;;;22.30;99.90;;;;;;4996392;28;20487;-78
2023/08/27 10:47:12;;;;;;;2.47;2.20;;;22.50;99.90;;;;;;4995865;28;20487;-81
2023/08/27 10:49:51;;;;;;;2.33;2.13;;;22.40;99.90;;;;;;5005006;28;20440;-80
2023/08/27 10:52:50;;;;;;;2.90;2.30;;;22.20;99.90;;;;;;5008249;28;20436;-82
2023/08/27 10:55:43;;;;;;;2.50;2.30;;;22.00;99.90;;;;;;5002424;28;20476;-78
2023/08/27 10:58:26;;;;;;;2.60;2.40;;;21.70;99.90;;;;;;5004844;28;20540;-79
2023/08/27 11:01:31;;;;;;;2.53;2.33;;;21.90;99.90;;;;;;5002545;28;20547;-78
2023/08/27 11:04:08;;;;;;;6.23;2.50;;;21.90;99.90;;;;;;5005008;28;20452;-80
2023/08/27 11:07:04;;;;;;;3.77;2.57;;;22.00;99.90;;;;;;4996528;28;20459;-80
2023/08/27 11:09:52;;;;;;;2.83;2.47;;;22.00;99.90;;;;;;4986075;28;20462;-80
2023/08/27 11:12:28;;;;;;;2.73;2.53;;;21.80;99.90;;;;;;4997482;28;20456;-79
2023/08/27 11:15:11;;;;;;;4.30;3.10;;;21.90;99.90;;;;;;4999696;28;20459;-80
2023/08/27 11:17:49;;;;;;;2.60;2.40;;;21.60;99.90;;;;;;4996506;28;20495;-81
2023/08/27 11:20:27;;;;;;;2.60;2.50;;;21.80;99.90;;;;;;4995360;28;20487;-79
2023/08/27 11:23:09;;;;;;;2.67;2.47;;;22.00;99.90;;;;;;4995447;28;20456;-83
2023/08/27 11:25:41;;;;;;;2.87;2.67;;;21.90;99.90;;;;;;4995389;28;20490;-80
2023/08/27 11:28:19;;;;;;;2.40;2.20;;;22.00;99.90;;;;;;4995514;28;20476;-81
2023/08/27 11:30:47;;;;;;;3.70;2.27;;;22.00;99.90;;;;;;4994519;28;20436;-81
2023/08/27 11:33:27;;;;;;;2.50;2.30;;;21.60;99.90;;;;;;5000620;28;20453;-79
2023/08/27 11:36:09;;;;;;;2.83;2.63;;;21.60;99.90;;;;;;5007406;28;20455;-80
2023/08/27 11:38:37;;;;;;;3.90;2.70;;;21.60;99.90;;;;;;5009921;28;20956;-82
2023/08/27 11:41:15;;;;;;;3.13;2.83;;;21.50;99.90;;;;;;5004988;28;20476;-80
2023/08/27 11:43:59;;;;;;;3.53;3.20;;;21.40;99.90;;;;;;5003021;28;20441;-80
2023/08/27 11:46:27;;;;;;;3.00;2.70;;;21.40;99.90;;;;;;4998559;28;20546;-82
2023/08/27 11:48:57;;;;;;;2.73;2.53;;;21.90;99.90;;;;;;4998475;28;20870;-82
2023/08/27 11:51:31;;;;;;;2.53;2.33;;;22.00;99.90;;;;;;4995434;28;20605;-79
2023/08/27 11:54:06;;;;;;;2.70;2.50;;;22.10;99.90;;;;;;4995082;28;20550;-79
2023/08/27 11:56:42;;;;;;;2.53;2.20;;;22.10;99.90;;;;;;4994618;28;20566;-80
2023/08/27 11:59:16;;;;;;;3.27;1.97;;;22.20;99.90;;;;;;4994623;28;20483;-82
2023/08/27 12:01:54;;;;;;;2.33;2.23;;;22.10;99.90;;;;;;4994431;28;20785;-79
2023/08/27 12:04:55;;;;;;;3.10;2.60;;;21.80;99.90;;;;;;4995318;28;21019;-79
2023/08/27 12:07:45;;;;;;;2.87;2.37;;;22.40;99.90;;;;;;4995447;28;20474;-79
2023/08/27 12:10:21;;;;;;;2.83;2.63;;;22.40;99.90;;;;;;4992867;28;20444;-81
2023/08/27 12:12:54;;;;;;;2.90;2.67;;;22.30;99.90;;;;;;4996161;28;20495;-79
2023/08/27 12:15:34;;;;;;;3.23;2.30;;;22.40;99.90;;;;;;4999272;28;20456;-82
2023/08/27 12:18:07;;;;;;;3.10;2.90;;;22.40;99.90;;;;;;4999151;28;20852;-82
2023/08/27 12:20:36;;;;;;;2.90;2.57;;;22.50;99.90;;;;;;4996513;28;20847;-82
2023/08/27 12:23:12;;;;;;;3.77;2.70;;;22.50;99.90;;;;;;5005284;28;20873;-79
2023/08/27 12:25:51;;;;;;;3.53;2.60;;;22.50;99.90;;;;;;5018383;28;20505;-80
2023/08/27 12:28:21;;;;;;;2.90;2.70;;;22.40;99.90;;;;;;5015746;28;20455;-81
2023/08/27 12:30:55;;;;;;;3.40;2.67;;;22.30;99.90;;;;;;5014857;28;20442;-80
2023/08/27 12:33:43;;;;;;;4.07;2.53;;;22.30;99.90;;;;;;5014019;28;20436;-80
2023/08/27 12:36:11;;;;;;;2.53;2.40;;;22.20;99.90;;;;;;5015378;28;20476;-81
2023/08/27 12:38:42;;;;;;;3.27;2.93;;;22.10;99.90;;;;;;5014844;28;20447;-79
2023/08/27 12:41:18;;;;;;;2.70;2.50;;;22.40;99.90;;;;;;5016118;28;20485;-82
2023/08/27 12:43:51;;;;;;;2.30;2.20;;;22.50;99.90;;;;;;5020750;28;20462;-81
2023/08/27 12:46:23;;;;;;;2.47;2.27;;;22.70;99.90;;;;;;5019748;28;20487;-80
2023/08/27 12:48:53;;;;;;;3.37;2.80;;;22.70;99.90;;;;;;5019707;28;20431;-80
2023/08/27 12:51:42;;;;;;;3.30;3.00;;;22.70;99.90;;;;;;5018400;28;20451;-80
2023/08/27 12:54:26;;;;;;;3.23;2.70;;;22.90;99.90;;;;;;5018645;28;20517;-81
2023/08/27 12:56:59;;;;;;;3.63;2.90;;;22.70;99.90;;;;;;5018022;28;20471;-79
2023/08/27 12:59:28;;;;;;;4.23;3.03;;;22.70;99.90;;;;;;5016755;28;20474;-81
2023/08/27 13:02:17;;;;;;;3.27;3.00;;;22.70;99.90;;;;;;5018825;28;20456;-81
2023/08/27 13:04:53;;;;;;;3.17;2.97;;;22.70;99.90;;;;;;5017405;28;20479;-80
2023/08/27 13:10:30;;;;;;;2.67;2.43;;;22.80;99.90;;;;;;5017037;28;20852;-82
2023/08/27 13:13:13;;;;;;;3.17;2.97;;;22.80;99.90;;;;;;5018487;28;20530;-82
2023/08/27 13:16:00;;;;;;;3.30;2.60;;;22.90;99.90;;;;;;5017715;28;20420;-83
2023/08/27 13:18:40;;;;;;;3.23;3.00;;;23.00;99.90;;;;;;5018743;28;20818;-79
2023/08/27 13:21:14;;;;;;;3.20;3.00;;;22.90;99.90;;;;;;5020124;28;20471;-80
2023/08/27 13:23:54;;;;;;;2.63;2.43;;;22.90;99.90;;;;;;5020112;28;20454;-82
2023/08/27 13:26:22;;;;;;;2.90;2.70;;;22.90;99.90;;;;;;5017196;28;20472;-78
2023/08/27 13:28:50;;;;;;;2.93;2.73;;;23.00;99.90;;;;;;5019719;28;20542;-79
2023/08/27 13:31:20;;;;;;;3.00;2.80;;;23.10;99.90;;;;;;5018923;28;20452;-80
2023/08/27 13:33:53;;;;;;;2.97;2.67;;;23.00;99.90;;;;;;5020873;28;20463;-82
2023/08/27 13:36:34;;;;;;;2.63;2.43;;;22.90;99.90;;;;;;5022228;28;20562;-81
2023/08/27 13:39:11;;;;;;;2.63;2.43;;;22.90;99.90;;;;;;5021173;28;20458;-84
2023/08/27 13:41:45;;;;;;;2.30;2.10;;;22.80;99.90;;;;;;5020991;28;20478;-79
2023/08/27 13:44:16;;;;;;;3.00;2.70;;;22.50;99.90;;;;;;5021887;28;20447;-81
2023/08/27 13:46:53;;;;;;;3.00;2.30;;;22.60;99.90;;;;;;5018675;28;20475;-81
2023/08/27 13:49:23;;;;;;;3.77;2.60;;;22.50;99.90;;;;;;5020325;28;20470;-80
2023/08/27 13:51:55;;;;;;;2.90;2.70;;;22.60;99.90;;;;;;5021113;28;20454;-80
2023/08/27 13:54:23;;;;;;;2.83;2.63;;;22.60;99.90;;;;;;5022704;28;20458;-82
2023/08/27 13:56:52;;;;;;;3.27;2.73;;;22.60;99.90;;;;;;5020659;28;20478;-82
2023/08/27 13:59:24;;;;;;;4.07;2.80;;;22.50;99.90;;;;;;5019678;28;20455;-80
2023/08/27 14:01:58;;;;;;;3.23;3.03;;;22.60;99.90;;;;;;5021913;28;20459;-79
2023/08/27 14:04:31;;;;;;;2.50;2.30;;;22.50;99.90;;;;;;5020137;28;20479;-80
2023/08/27 14:07:00;;;;;;;2.93;2.73;;;22.60;99.90;;;;;;5015871;28;20471;-80
2023/08/27 14:09:28;;;;;;;3.93;3.53;;;22.40;99.90;;;;;;5018826;28;20435;-81
2023/08/27 14:11:57;;;;;;;3.67;3.30;;;22.00;99.90;;;;;;5019884;28;20522;-81
2023/08/27 14:14:28;;;;;;;3.00;2.80;;;21.60;99.90;;;;;;5017992;28;20448;-81
2023/08/27 14:17:01;;;;;;;5.50;2.97;;;21.30;99.90;;;;;;5017185;28;20471;-80